East Andover, NH

1:35 PM EST on January 26, 2015 (GMT -0500)
East andover, NH | Change Station
CLOSE
Current Station
Personal Weather Station
Location: Andover, NH
Elevation: 751 ft
Nearby Weather Stations
Active Advisory: Winter Storm Warning

Elev 751 ft 43.46 °N, 71.76 °W | Updated 4 seconds ago

Partly Cloudy
Partly Cloudy
24.3 °F
Feels Like 24 °F
N
1.1
Wind Variable Wind from South
Gusts 2.5 mph

Today
High -- | Low -- °F
--% Chance of Precip.
Yesterday
High -- | Low -- °F
Precip. -- in
7:09 AM 4:50 PM
Waxing Crescent, 45% visible
Pressure 30.06 in
Visibility 10.0 miles
Clouds Clear
Windchill 24 °F
Dew Point -12 °F
Humidity 19%
Rainfall 0.00 in
Snow Depth Not available.
UV 2 out of 12
Pollen .10 out of 12
Air Quality Not available.
Flu Activity Not available.
METAR KLCI 261815Z AUTO 02007KT 360V050 10SM CLR M08/M19 A3006 RMK AO1

More Conditions Fewer Conditions

Pressure 30.06 in
Visibility 10.0 miles
Clouds Clear
Windchill 24 °F
Dew Point -12 °F
Humidity 19%
Rainfall 0.00 in
Snow Depth Not available.
UV 2 out of 12
Pollen .10 out of 12
Air Quality Not available.
Flu Activity Not available.
METAR KLCI 261815Z AUTO 02007KT 360V050 10SM CLR M08/M19 A3006 RMK AO1

More Conditions Fewer Conditions

10-Day Weather Forecast

Almanac

Astronomy

Jan. 26, 2015 Rise Set
Actual Time
Civil Twilight
Nautical Twilight
Astronomical Twilight
Moon
Length of Visible Light
Length of Day
Tomorrow will be .
, % of the Moon is Illuminated

Today's Extremes

State Highs State Lows

Community

WunderPhotos

Upload Photos

1,790,309 photos uploaded!

WunderBlogs® & News

Nearby

Air Quality

  Air Quality AQ Index Pollutant
Not available.

Snow Depth

Station Depth Elevation

Earthquake Activity

City Distance Mag. Time & Date
Minimum magnitude displayed is 2.5.

Coastal Water Temperatures

Place Temperature

Nearby Weather Stations